createdAt,value
2018-08-13T00:01:25.191Z,53.74
2018-08-13T00:03:57.995Z,55.00
2018-08-13T00:06:27.797Z,54.66
2018-08-13T00:08:57.597Z,54.33
2018-08-13T00:11:27.579Z,54.17
2018-08-13T00:13:57.242Z,53.66
2018-08-13T00:16:26.999Z,54.11
2018-08-13T00:18:56.757Z,54.25
2018-08-13T00:21:26.819Z,53.22
2018-08-13T00:23:56.663Z,53.34
2018-08-13T00:26:26.450Z,55.01
2018-08-13T00:28:56.264Z,54.52
2018-08-13T00:31:25.837Z,55.11
2018-08-13T00:33:55.388Z,54.88
2018-08-13T00:36:25.161Z,55.22
2018-08-13T00:38:54.828Z,55.49
2018-08-13T00:41:24.747Z,55.08
2018-08-13T00:43:54.516Z,55.37
2018-08-13T00:46:24.313Z,55.83
2018-08-13T00:48:54.051Z,56.88
2018-08-13T00:51:23.912Z,56.49
2018-08-13T00:53:53.540Z,56.45
2018-08-13T00:56:23.407Z,57.35
2018-08-13T00:58:53.282Z,57.01
2018-08-13T01:01:23.134Z,57.50
2018-08-13T01:03:52.957Z,56.94
2018-08-13T01:06:22.923Z,56.63
2018-08-13T01:08:52.883Z,56.18
2018-08-13T01:11:25.819Z,56.61
2018-08-13T01:13:55.692Z,55.71
2018-08-13T01:16:25.383Z,55.95
2018-08-13T01:18:55.249Z,55.16
2018-08-13T01:21:24.917Z,54.24
2018-08-13T01:23:54.577Z,54.52
2018-08-13T01:26:24.177Z,54.39
2018-08-13T01:28:54.028Z,54.67
2018-08-13T01:31:23.879Z,54.37
2018-08-13T01:33:53.749Z,55.55
2018-08-13T01:36:23.466Z,54.62
2018-08-13T01:38:53.392Z,55.44
2018-08-13T01:41:23.295Z,55.32
2018-08-13T01:43:53.183Z,54.99
2018-08-13T01:46:22.981Z,54.82
2018-08-13T01:48:52.552Z,54.77
2018-08-13T01:51:22.230Z,54.75
2018-08-13T01:53:51.808Z,55.34
2018-08-13T01:56:21.346Z,55.80
2018-08-13T01:58:50.899Z,55.60
2018-08-13T02:01:20.575Z,56.41
2018-08-13T02:03:50.353Z,55.84
2018-08-13T02:06:20.416Z,56.48
2018-08-13T02:08:50.158Z,56.24
2018-08-13T02:11:19.863Z,55.74
2018-08-13T02:13:49.538Z,55.96
2018-08-13T02:16:19.252Z,56.22
2018-08-13T02:18:49.008Z,56.73
2018-08-13T02:21:18.759Z,56.73
2018-08-13T02:23:48.958Z,55.52
2018-08-13T02:26:19.191Z,56.69
2018-08-13T02:28:49.016Z,56.70
2018-08-13T02:31:19.221Z,57.06
2018-08-13T02:33:49.024Z,56.63
2018-08-13T02:36:19.024Z,56.85
2018-08-13T02:38:48.589Z,56.05
2018-08-13T02:41:18.387Z,54.80
2018-08-13T02:43:48.229Z,54.81
2018-08-13T02:46:18.382Z,55.39
2018-08-13T02:48:48.158Z,55.59
2018-08-13T02:51:18.374Z,54.28
2018-08-13T02:53:48.023Z,54.34
2018-08-13T02:56:18.284Z,54.42
2018-08-13T02:58:47.956Z,54.96
2018-08-13T03:01:18.125Z,53.99
2018-08-13T03:03:47.831Z,54.85
2018-08-13T03:06:17.643Z,54.41
2018-08-13T03:08:47.417Z,54.80
2018-08-13T03:11:17.028Z,53.98
2018-08-13T03:13:46.670Z,54.28
2018-08-13T03:16:16.865Z,54.78
2018-08-13T03:18:46.624Z,53.92
2018-08-13T03:21:16.215Z,54.63
2018-08-13T03:23:46.007Z,53.88
2018-08-13T03:26:15.639Z,55.25
2018-08-13T03:28:45.336Z,54.19
2018-08-13T03:31:15.136Z,54.36
2018-08-13T03:33:44.837Z,55.02
2018-08-13T03:36:14.614Z,55.40
2018-08-13T03:38:44.367Z,56.20
2018-08-13T03:41:14.182Z,55.36
2018-08-13T03:43:43.915Z,56.02
2018-08-13T03:46:13.896Z,55.34
2018-08-13T03:48:43.822Z,56.31
2018-08-13T03:51:17.834Z,56.54
2018-08-13T03:53:47.421Z,55.66
2018-08-13T03:56:17.139Z,55.71
2018-08-13T03:58:46.911Z,56.69
2018-08-13T04:01:16.511Z,56.71
2018-08-13T04:03:46.181Z,56.38
2018-08-13T04:06:15.789Z,56.81
2018-08-13T04:08:45.496Z,56.97
2018-08-13T04:11:15.331Z,57.57
2018-08-13T04:13:45.223Z,57.38
2018-08-13T04:16:14.955Z,57.76
2018-08-13T04:18:45.382Z,57.79
2018-08-13T04:21:15.231Z,57.30
2018-08-13T04:23:44.964Z,57.66
2018-08-13T04:26:14.922Z,57.52
2018-08-13T04:28:44.659Z,57.19
2018-08-13T04:31:14.448Z,57.16
2018-08-13T04:33:44.085Z,57.49
2018-08-13T04:36:14.331Z,56.71
2018-08-13T04:38:44.803Z,57.25
2018-08-13T04:41:14.622Z,56.85
2018-08-13T04:43:44.649Z,56.57
2018-08-13T04:46:14.309Z,56.93
2018-08-13T04:48:44.950Z,55.53
2018-08-13T04:51:14.757Z,55.90
2018-08-13T04:53:44.505Z,53.56
2018-08-13T04:56:14.185Z,53.19
2018-08-13T04:58:43.889Z,47.42
2018-08-13T05:01:13.560Z,46.40
2018-08-13T05:03:43.750Z,42.73
2018-08-13T05:06:13.436Z,40.12
2018-08-13T05:08:43.481Z,40.87
2018-08-13T05:11:13.477Z,41.86
2018-08-13T05:13:43.168Z,45.63
2018-08-13T05:16:12.879Z,45.77
2018-08-13T05:18:42.498Z,44.58
2018-08-13T05:21:12.151Z,45.55
2018-08-13T05:23:41.921Z,45.50
2018-08-13T05:26:11.844Z,44.59
2018-08-13T05:28:41.577Z,41.19
2018-08-13T05:31:11.303Z,34.66
2018-08-13T05:33:41.166Z,40.46
2018-08-13T05:36:11.017Z,42.88
2018-08-13T05:38:40.561Z,43.81
2018-08-13T05:41:10.509Z,44.01
2018-08-13T05:43:40.283Z,46.77
2018-08-13T05:46:10.269Z,47.75
2018-08-13T05:48:40.186Z,47.40
2018-08-13T05:51:10.451Z,48.47
2018-08-13T05:53:40.549Z,48.07
2018-08-13T05:56:10.420Z,48.26
2018-08-13T05:58:40.299Z,47.07
2018-08-13T06:01:09.956Z,40.78
2018-08-13T06:03:46.361Z,38.06
2018-08-13T06:06:16.055Z,42.68
2018-08-13T06:08:45.751Z,39.61
2018-08-13T06:11:15.359Z,38.65
2018-08-13T06:13:45.118Z,44.24
2018-08-13T06:16:14.935Z,47.03
2018-08-13T06:18:44.689Z,47.38
2018-08-13T06:21:14.536Z,48.76
2018-08-13T06:23:44.407Z,49.46
2018-08-13T06:26:14.318Z,49.51
2018-08-13T06:28:44.056Z,48.64
2018-08-13T06:31:13.678Z,48.34
2018-08-13T06:33:43.435Z,49.08
2018-08-13T06:36:13.373Z,48.65
2018-08-13T06:38:42.981Z,46.46
2018-08-13T06:41:12.826Z,47.02
2018-08-13T06:43:42.581Z,46.09
2018-08-13T06:46:12.174Z,47.09
2018-08-13T06:48:41.960Z,47.62
2018-08-13T06:51:11.756Z,46.54
2018-08-13T06:53:41.552Z,44.08
2018-08-13T06:56:11.837Z,42.43
2018-08-13T06:58:41.628Z,41.92
2018-08-13T07:01:11.666Z,41.51
2018-08-13T07:03:41.419Z,40.77
2018-08-13T07:06:11.174Z,41.12
2018-08-13T07:08:41.205Z,41.06
2018-08-13T07:11:10.925Z,40.48
2018-08-13T07:13:40.742Z,41.09
2018-08-13T07:16:10.493Z,40.27
2018-08-13T07:18:40.497Z,40.94
2018-08-13T07:21:10.446Z,41.42
2018-08-13T07:23:40.370Z,41.86
2018-08-13T07:26:10.142Z,42.38
2018-08-13T07:28:39.965Z,41.99
2018-08-13T07:31:09.634Z,41.94
2018-08-13T07:33:39.876Z,42.76
2018-08-13T07:36:09.924Z,43.95
2018-08-13T07:38:39.723Z,45.39
2018-08-13T07:41:09.712Z,46.41
2018-08-13T07:43:40.213Z,47.02
2018-08-13T07:46:10.081Z,45.77
2018-08-13T07:48:39.884Z,46.65
2018-08-13T07:51:09.564Z,45.76
2018-08-13T07:53:39.568Z,47.03
2018-08-13T07:56:09.600Z,49.98
2018-08-13T07:58:39.547Z,53.04
2018-08-13T08:01:09.369Z,56.64
2018-08-13T08:03:39.084Z,57.31
2018-08-13T08:06:09.193Z,57.81
2018-08-13T08:08:39.177Z,59.56
2018-08-13T08:11:08.978Z,58.65
2018-08-13T08:13:38.954Z,58.80
2018-08-13T08:16:08.883Z,58.92
2018-08-13T08:18:38.723Z,59.24
2018-08-13T08:21:08.775Z,58.61
2018-08-13T08:23:38.629Z,58.67
2018-08-13T08:26:08.304Z,61.35
2018-08-13T08:28:38.305Z,62.21
2018-08-13T08:31:08.239Z,62.89
2018-08-13T08:33:37.899Z,63.27
2018-08-13T08:36:07.843Z,64.59
2018-08-13T08:38:37.948Z,63.62
2018-08-13T08:41:07.829Z,63.79
2018-08-13T08:43:37.608Z,63.45
2018-08-13T08:46:08.679Z,63.08
2018-08-13T08:48:38.471Z,64.62
2018-08-13T08:51:08.481Z,64.46
2018-08-13T08:53:38.625Z,64.05
2018-08-13T08:56:08.391Z,65.31
2018-08-13T08:58:38.479Z,65.95
2018-08-13T09:01:08.417Z,65.24
2018-08-13T09:03:38.044Z,65.76
2018-08-13T09:06:07.770Z,65.05
2018-08-13T09:08:37.705Z,64.20
2018-08-13T09:11:07.888Z,63.64
2018-08-13T09:13:37.855Z,62.93
2018-08-13T09:16:07.728Z,65.15
2018-08-13T09:18:54.501Z,67.99
2018-08-13T09:21:32.289Z,68.34
2018-08-13T09:24:18.768Z,69.47
2018-08-13T09:27:05.251Z,71.20
2018-08-13T09:29:51.786Z,71.46
2018-08-13T09:32:38.385Z,70.67
2018-08-13T09:35:38.589Z,70.87
2018-08-13T09:38:08.528Z,71.16
2018-08-13T09:40:38.534Z,71.24
2018-08-13T09:43:08.252Z,69.66
2018-08-13T09:45:37.942Z,70.82
2018-08-13T09:48:07.883Z,70.37
2018-08-13T09:50:37.613Z,69.20
2018-08-13T09:53:07.663Z,70.26
2018-08-13T09:55:37.474Z,68.83
2018-08-13T09:58:08.312Z,67.98
2018-08-13T10:00:43.174Z,67.22
2018-08-13T10:03:13.010Z,65.81
2018-08-13T10:05:42.935Z,66.08
2018-08-13T10:08:12.761Z,65.17
2018-08-13T10:10:42.495Z,66.73
2018-08-13T10:13:12.522Z,65.07
2018-08-13T10:15:42.689Z,65.69
2018-08-13T10:18:12.473Z,65.75
2018-08-13T10:20:42.412Z,67.04
2018-08-13T10:23:12.404Z,67.26
2018-08-13T10:25:42.499Z,67.93
2018-08-13T10:28:12.361Z,69.13
2018-08-13T10:30:42.214Z,68.28
2018-08-13T10:33:12.071Z,70.59
2018-08-13T10:35:42.000Z,68.28
2018-08-13T10:38:11.694Z,68.41
2018-08-13T10:40:41.406Z,68.49
2018-08-13T10:43:11.059Z,70.35
2018-08-13T10:45:40.810Z,69.94
2018-08-13T10:48:10.582Z,69.17
2018-08-13T10:50:40.298Z,68.29
2018-08-13T10:53:10.134Z,66.43
2018-08-13T10:55:39.943Z,65.14
2018-08-13T10:58:09.923Z,66.11
2018-08-13T11:00:39.754Z,65.47
2018-08-13T11:03:09.640Z,66.32
2018-08-13T11:05:39.319Z,64.53
2018-08-13T11:08:09.025Z,65.00
2018-08-13T11:10:38.670Z,66.75
2018-08-13T11:13:08.532Z,64.85
2018-08-13T11:15:38.213Z,65.43
2018-08-13T11:18:13.051Z,64.14
2018-08-13T11:20:43.081Z,64.16
2018-08-13T11:23:13.094Z,62.60
2018-08-13T11:25:42.792Z,61.53
2018-08-13T11:28:12.751Z,61.18
2018-08-13T11:30:43.774Z,61.23
2018-08-13T11:33:13.333Z,60.28
2018-08-13T11:35:43.384Z,56.57
2018-08-13T11:38:13.246Z,55.50
2018-08-13T11:40:43.337Z,55.69
2018-08-13T11:43:13.039Z,56.38
2018-08-13T11:45:42.856Z,54.33
2018-08-13T11:48:15.120Z,54.28
2018-08-13T11:50:45.189Z,53.58
2018-08-13T11:53:14.921Z,52.40
2018-08-13T11:55:44.824Z,51.88
2018-08-13T11:58:14.747Z,52.23
2018-08-13T12:00:44.910Z,52.39
2018-08-13T12:03:14.738Z,51.71
2018-08-13T12:05:44.655Z,52.48
2018-08-13T12:08:14.385Z,53.13
2018-08-13T12:10:44.108Z,53.25
2018-08-13T12:13:13.886Z,53.58
2018-08-13T12:15:43.985Z,53.22
2018-08-13T12:18:13.825Z,53.16
2018-08-13T12:20:43.662Z,51.28
2018-08-13T12:23:13.476Z,51.72
2018-08-13T12:25:43.529Z,51.17
2018-08-13T12:28:13.155Z,50.39
2018-08-13T12:30:42.906Z,51.20
2018-08-13T12:33:12.674Z,50.55
2018-08-13T12:35:42.530Z,50.85
2018-08-13T12:38:12.558Z,53.00
2018-08-13T12:40:42.441Z,51.96
2018-08-13T12:43:12.404Z,52.67
2018-08-13T12:45:42.322Z,51.54
2018-08-13T12:48:12.604Z,54.08
2018-08-13T12:50:42.447Z,55.08
2018-08-13T12:53:12.528Z,54.08
2018-08-13T12:55:42.492Z,55.77
2018-08-13T12:58:12.899Z,55.61
2018-08-13T13:00:43.096Z,55.78
2018-08-13T13:03:12.704Z,55.88
2018-08-13T13:05:42.729Z,54.06
2018-08-13T13:08:12.477Z,55.75
2018-08-13T13:10:42.607Z,55.59
2018-08-13T13:13:12.692Z,59.00
2018-08-13T13:15:42.842Z,59.29
2018-08-13T13:18:12.536Z,59.82
2018-08-13T13:20:42.416Z,60.92
2018-08-13T13:23:12.571Z,61.13
2018-08-13T13:25:42.557Z,60.26
2018-08-13T13:28:12.571Z,61.02
2018-08-13T13:30:42.516Z,62.89
2018-08-13T13:33:12.619Z,61.08
2018-08-13T13:35:42.335Z,60.36
2018-08-13T13:38:12.373Z,61.79
2018-08-13T13:40:42.210Z,61.21
2018-08-13T13:43:12.201Z,61.40
2018-08-13T13:45:42.394Z,61.81
2018-08-13T13:48:12.552Z,61.58
2018-08-13T13:50:42.223Z,60.93
2018-08-13T13:53:12.217Z,58.96
2018-08-13T13:55:42.100Z,59.57
2018-08-13T13:58:12.072Z,60.88
2018-08-13T14:00:41.927Z,59.58
2018-08-13T14:03:14.746Z,59.26
2018-08-13T14:05:44.621Z,59.93
2018-08-13T14:08:14.670Z,61.09
2018-08-13T14:10:44.532Z,60.15
2018-08-13T14:13:14.722Z,61.28
2018-08-13T14:15:45.346Z,61.70
2018-08-13T14:18:15.497Z,61.58
2018-08-13T14:20:45.328Z,61.38
2018-08-13T14:23:15.725Z,63.62
2018-08-13T14:25:45.762Z,66.51
2018-08-13T14:28:15.965Z,67.73
2018-08-13T14:30:45.768Z,67.41
2018-08-13T14:33:16.025Z,66.26
2018-08-13T14:35:45.867Z,66.13
2018-08-13T14:38:16.428Z,66.18
2018-08-13T14:40:46.226Z,67.41
2018-08-13T14:43:16.578Z,68.66
2018-08-13T14:45:46.446Z,68.37
2018-08-13T14:48:16.647Z,67.43
2018-08-13T14:50:46.665Z,67.82
2018-08-13T14:53:17.033Z,69.29
2018-08-13T14:55:46.938Z,70.58
2018-08-13T14:58:17.181Z,71.88
2018-08-13T15:00:46.966Z,72.58
2018-08-13T15:03:17.162Z,72.13
2018-08-13T15:05:47.111Z,73.45
2018-08-13T15:08:17.372Z,74.33
2018-08-13T15:10:47.239Z,73.83
2018-08-13T15:13:17.026Z,72.82
2018-08-13T15:15:46.746Z,72.59
2018-08-13T15:18:17.097Z,75.26
2018-08-13T15:20:47.019Z,77.77
2018-08-13T15:23:16.715Z,77.72
2018-08-13T15:25:47.129Z,76.74
2018-08-13T15:28:17.040Z,76.88
2018-08-13T15:30:46.737Z,75.00
2018-08-13T15:33:19.647Z,74.59
2018-08-13T15:35:49.347Z,74.57
2018-08-13T15:38:19.484Z,74.80
2018-08-13T15:40:49.590Z,74.80
2018-08-13T15:43:19.811Z,74.33
2018-08-13T15:45:49.635Z,74.44
2018-08-13T15:48:19.822Z,73.97
2018-08-13T15:50:49.616Z,75.43
2018-08-13T15:53:19.380Z,73.15
2018-08-13T15:55:49.202Z,73.88
2018-08-13T15:58:19.211Z,74.33
2018-08-13T16:00:48.934Z,71.35
2018-08-13T16:03:18.880Z,69.77
2018-08-13T16:05:48.754Z,69.96
2018-08-13T16:08:18.502Z,69.29
2018-08-13T16:10:48.682Z,68.75
2018-08-13T16:13:18.457Z,68.52
2018-08-13T16:15:48.380Z,67.65
2018-08-13T16:18:18.083Z,65.94
2018-08-13T16:20:48.470Z,67.16
2018-08-13T16:23:18.189Z,66.73
2018-08-13T16:25:48.337Z,66.26
2018-08-13T16:28:18.099Z,66.68
2018-08-13T16:30:48.875Z,67.19
2018-08-13T16:33:18.771Z,69.35
2018-08-13T16:35:48.813Z,69.22
2018-08-13T16:38:18.573Z,69.42
2018-08-13T16:40:48.342Z,70.28
2018-08-13T16:43:18.090Z,70.97
2018-08-13T16:45:47.961Z,72.41
2018-08-13T16:48:17.688Z,72.06
2018-08-13T16:50:47.524Z,72.87
2018-08-13T16:53:17.351Z,72.68
2018-08-13T16:55:47.376Z,73.04
2018-08-13T16:58:17.136Z,72.64
2018-08-13T17:00:47.160Z,73.75
2018-08-13T17:03:17.037Z,74.40
2018-08-13T17:05:46.772Z,73.71
2018-08-13T17:08:16.678Z,73.93
2018-08-13T17:10:46.439Z,74.25
2018-08-13T17:13:16.148Z,74.64
2018-08-13T17:15:46.032Z,73.77
2018-08-13T17:18:15.938Z,74.10
2018-08-13T17:20:45.584Z,74.94
2018-08-13T17:23:15.721Z,74.76
2018-08-13T17:25:45.433Z,74.27
2018-08-13T17:28:15.094Z,73.68
2018-08-13T17:30:44.771Z,73.32
2018-08-13T17:33:14.688Z,74.22
2018-08-13T17:35:44.529Z,74.53
2018-08-13T17:38:14.328Z,73.57
2018-08-13T17:40:44.029Z,73.67
2018-08-13T17:43:13.955Z,73.22
2018-08-13T17:45:43.729Z,73.72
2018-08-13T17:48:13.490Z,72.46
2018-08-13T17:50:43.228Z,73.82
2018-08-13T17:53:13.053Z,73.91
2018-08-13T17:55:42.985Z,74.96
2018-08-13T17:58:12.888Z,75.95
2018-08-13T18:00:42.581Z,75.51
2018-08-13T18:03:16.327Z,76.00
2018-08-13T18:05:46.279Z,75.87
2018-08-13T18:08:15.958Z,76.20
2018-08-13T18:10:45.920Z,76.73
2018-08-13T18:13:15.868Z,75.48
2018-08-13T18:15:45.776Z,77.47
2018-08-13T18:18:15.580Z,77.69
2018-08-13T18:20:45.655Z,79.17
2018-08-13T18:23:15.510Z,78.41
2018-08-13T18:25:45.256Z,78.26
2018-08-13T18:28:15.780Z,79.15
2018-08-13T18:30:46.000Z,78.35
2018-08-13T18:33:15.842Z,78.16
2018-08-13T18:35:45.625Z,77.02
2018-08-13T18:38:15.461Z,78.37
2018-08-13T18:40:45.322Z,79.00
2018-08-13T18:43:15.040Z,77.54
2018-08-13T18:45:44.991Z,77.88
2018-08-13T18:48:14.900Z,78.28
2018-08-13T18:50:44.839Z,78.74
2018-08-13T18:53:14.646Z,77.84
2018-08-13T18:55:44.493Z,79.51
2018-08-13T18:58:14.489Z,80.56
2018-08-13T19:00:48.476Z,79.93
2018-08-13T19:03:18.195Z,80.50
2018-08-13T19:05:48.157Z,81.05
2018-08-13T19:08:18.002Z,81.66
2018-08-13T19:10:47.776Z,81.89
2018-08-13T19:13:17.635Z,81.69
2018-08-13T19:15:47.366Z,81.16
2018-08-13T19:18:17.304Z,82.33
2018-08-13T19:20:47.044Z,82.32
2018-08-13T19:23:17.017Z,82.27
2018-08-13T19:25:46.705Z,82.88
2018-08-13T19:28:16.716Z,82.44
2018-08-13T19:30:46.602Z,83.55
2018-08-13T19:33:16.677Z,84.76
2018-08-13T19:35:46.457Z,84.48
2018-08-13T19:38:16.362Z,85.38
2018-08-13T19:40:46.223Z,85.80
2018-08-13T19:43:16.209Z,86.35
2018-08-13T19:45:46.167Z,87.93
2018-08-13T19:48:16.286Z,88.00
2018-08-13T19:50:46.787Z,88.40
2018-08-13T19:53:16.796Z,88.49
2018-08-13T19:55:47.649Z,88.46
2018-08-13T19:58:17.756Z,88.44
2018-08-13T20:00:47.898Z,88.71
2018-08-13T20:03:18.057Z,89.54
2018-08-13T20:05:48.279Z,89.21
2018-08-13T20:08:18.393Z,89.85
2018-08-13T20:10:48.186Z,90.17
2018-08-13T20:13:18.069Z,89.48
2018-08-13T20:15:47.809Z,91.27
2018-08-13T20:18:17.583Z,89.92
2018-08-13T20:20:47.343Z,90.91
2018-08-13T20:23:17.172Z,90.50
2018-08-13T20:25:51.118Z,90.94
2018-08-13T20:28:20.966Z,91.22
2018-08-13T20:30:50.701Z,92.06
2018-08-13T20:33:20.492Z,91.78
2018-08-13T20:35:50.432Z,90.87
2018-08-13T20:38:20.161Z,91.58
2018-08-13T20:40:49.877Z,91.93
2018-08-13T20:43:19.749Z,93.08
2018-08-13T20:45:49.498Z,92.16
2018-08-13T20:48:19.445Z,91.15
2018-08-13T20:50:49.642Z,92.41
2018-08-13T20:53:19.904Z,91.68
2018-08-13T20:55:49.889Z,92.10
2018-08-13T20:58:19.750Z,93.09
2018-08-13T21:00:49.530Z,92.05
2018-08-13T21:03:19.354Z,92.43
2018-08-13T21:05:49.256Z,93.53
2018-08-13T21:08:19.237Z,93.66
2018-08-13T21:10:48.988Z,92.90
2018-08-13T21:13:19.162Z,93.37
2018-08-13T21:15:49.251Z,93.03
2018-08-13T21:18:19.078Z,93.43
2018-08-13T21:20:48.951Z,93.76
2018-08-13T21:23:19.148Z,93.38
2018-08-13T21:25:48.957Z,94.76
2018-08-13T21:28:18.647Z,95.14
2018-08-13T21:30:48.419Z,95.33
2018-08-13T21:33:22.816Z,94.70
2018-08-13T21:35:52.473Z,94.93
2018-08-13T21:38:22.324Z,95.24
2018-08-13T21:40:52.096Z,95.13
2018-08-13T21:43:21.966Z,96.95
2018-08-13T21:45:51.712Z,96.77
2018-08-13T21:48:26.920Z,97.32
2018-08-13T21:50:56.607Z,97.24
2018-08-13T21:53:26.592Z,96.54
2018-08-13T21:55:57.154Z,97.61
2018-08-13T21:58:26.916Z,96.66
2018-08-13T22:01:01.754Z,96.03
2018-08-13T22:03:31.471Z,96.22
2018-08-13T22:06:01.272Z,96.08
2018-08-13T22:08:31.044Z,96.39
2018-08-13T22:11:00.908Z,95.50
2018-08-13T22:13:30.860Z,95.28
2018-08-13T22:16:00.695Z,95.27
2018-08-13T22:18:30.676Z,95.32
2018-08-13T22:21:00.528Z,94.92
2018-08-13T22:23:30.409Z,93.57
2018-08-13T22:26:00.140Z,94.70
2018-08-13T22:28:29.792Z,93.81
2018-08-13T22:30:59.572Z,93.73
2018-08-13T22:33:29.552Z,93.82
2018-08-13T22:35:59.474Z,92.63
2018-08-13T22:38:29.251Z,92.56
2018-08-13T22:40:58.845Z,92.34
2018-08-13T22:43:28.604Z,91.48
2018-08-13T22:45:58.314Z,91.09
2018-08-13T22:48:27.991Z,91.22
2018-08-13T22:50:57.656Z,91.99
2018-08-13T22:53:27.389Z,91.69
2018-08-13T22:55:57.154Z,92.08
2018-08-13T22:58:26.799Z,92.12
2018-08-13T23:00:56.965Z,93.41
2018-08-13T23:03:26.456Z,92.14
2018-08-13T23:05:56.446Z,92.39
2018-08-13T23:08:26.397Z,93.38
2018-08-13T23:10:56.264Z,93.99
2018-08-13T23:13:27.439Z,93.66
2018-08-13T23:15:57.387Z,93.70
2018-08-13T23:18:27.183Z,93.36
2018-08-13T23:20:58.087Z,94.16
2018-08-13T23:23:28.091Z,93.87
2018-08-13T23:25:58.221Z,93.78
2018-08-13T23:28:28.052Z,94.86
2018-08-13T23:30:57.977Z,94.70
2018-08-13T23:33:27.766Z,94.60
2018-08-13T23:35:57.741Z,95.45
2018-08-13T23:38:27.496Z,94.60
2018-08-13T23:40:57.344Z,95.28
2018-08-13T23:43:26.969Z,94.26
2018-08-13T23:45:56.855Z,94.67
2018-08-13T23:48:26.671Z,95.36
2018-08-13T23:50:56.709Z,95.92
2018-08-13T23:53:33.060Z,96.05
2018-08-13T23:56:02.824Z,95.52
2018-08-13T23:58:32.480Z,95.90
